< < Back
Terminal Aerodrome Forecast


Current Version              Previous Versions:   1  2  3  4  5  6  7  8  9  

Terminal Aerodrome Forecast

904
FTUS42 KGSP 021734
TAFCLT
TAF
KCLT 021734Z 0218/0318 02007KT P6SM FEW070
     FM030000 11004KT P6SM SCT060
     FM030900 00000KT P6SM SCT150
     FM031600 18005KT P6SM SCT045=



Latest METAR

036
SAUS70 KWBC 021800 RRC
MTRCLT
METAR KCLT 021752Z 00000KT 10SM SCT070 BKN250 31/13 A2998 RMK AO2 SLP141
T03110128 10322 20228 58010


USA.gov is the U.S. government's official web portal to all federal, state and local government web resources and services.